sensor_id;sensor_type;location;lat;lon;timestamp;temperature;humidity
75387;DHT22;63966;47.914;22.266;2023-06-22T00:01:57;20.67;87.52
75387;DHT22;63966;47.914;22.266;2023-06-22T00:05:00;20.77;87.27
75387;DHT22;63966;47.914;22.266;2023-06-22T00:08:04;20.67;87.35
75387;DHT22;63966;47.914;22.266;2023-06-22T00:11:10;20.66;87.39
75387;DHT22;63966;47.914;22.266;2023-06-22T00:14:14;20.67;87.29
75387;DHT22;63966;47.914;22.266;2023-06-22T00:17:17;20.66;87.41
75387;DHT22;63966;47.914;22.266;2023-06-22T00:20:20;20.61;87.31
75387;DHT22;63966;47.914;22.266;2023-06-22T00:23:24;20.59;87.54
75387;DHT22;63966;47.914;22.266;2023-06-22T00:26:27;20.51;87.76
75387;DHT22;63966;47.914;22.266;2023-06-22T00:29:31;20.47;87.88
75387;DHT22;63966;47.914;22.266;2023-06-22T00:32:35;20.43;87.87
75387;DHT22;63966;47.914;22.266;2023-06-22T00:35:38;20.37;88.14
75387;DHT22;63966;47.914;22.266;2023-06-22T00:38:44;20.39;88.33
75387;DHT22;63966;47.914;22.266;2023-06-22T00:41:48;20.34;88.65
75387;DHT22;63966;47.914;22.266;2023-06-22T00:44:51;20.34;88.78
75387;DHT22;63966;47.914;22.266;2023-06-22T00:47:56;20.32;88.93
75387;DHT22;63966;47.914;22.266;2023-06-22T00:51:01;20.29;89.02
75387;DHT22;63966;47.914;22.266;2023-06-22T00:54:05;20.29;89.22
75387;DHT22;63966;47.914;22.266;2023-06-22T00:57:09;20.29;89.30
75387;DHT22;63966;47.914;22.266;2023-06-22T01:00:18;20.22;89.75
75387;DHT22;63966;47.914;22.266;2023-06-22T01:03:23;20.34;89.28
75387;DHT22;63966;47.914;22.266;2023-06-22T01:06:38;20.26;89.26
75387;DHT22;63966;47.914;22.266;2023-06-22T01:10:07;20.28;89.59
75387;DHT22;63966;47.914;22.266;2023-06-22T01:16:34;20.40;89.21
75387;DHT22;63966;47.914;22.266;2023-06-22T01:19:48;20.36;89.17
75387;DHT22;63966;47.914;22.266;2023-06-22T01:30:02;20.13;89.65
75387;DHT22;63966;47.914;22.266;2023-06-22T01:33:12;19.98;90.41
75387;DHT22;63966;47.914;22.266;2023-06-22T01:36:17;20.11;89.75
75387;DHT22;63966;47.914;22.266;2023-06-22T01:39:22;20.06;89.53
75387;DHT22;63966;47.914;22.266;2023-06-22T01:42:28;19.96;89.79
75387;DHT22;63966;47.914;22.266;2023-06-22T01:45:32;20.08;89.24
75387;DHT22;63966;47.914;22.266;2023-06-22T01:48:35;20.02;89.57
75387;DHT22;63966;47.914;22.266;2023-06-22T01:51:39;20.04;89.63
75387;DHT22;63966;47.914;22.266;2023-06-22T01:54:42;20.02;89.27
75387;DHT22;63966;47.914;22.266;2023-06-22T01:57:46;20.09;88.98
75387;DHT22;63966;47.914;22.266;2023-06-22T02:01:03;20.22;88.57
75387;DHT22;63966;47.914;22.266;2023-06-22T02:04:21;20.33;88.16
75387;DHT22;63966;47.914;22.266;2023-06-22T02:07:49;20.15;88.84
75387;DHT22;63966;47.914;22.266;2023-06-22T02:10:56;20.09;89.01
75387;DHT22;63966;47.914;22.266;2023-06-22T02:14:00;20.04;89.33
75387;DHT22;63966;47.914;22.266;2023-06-22T02:17:04;20.12;89.03
75387;DHT22;63966;47.914;22.266;2023-06-22T02:20:15;20.12;89.20
75387;DHT22;63966;47.914;22.266;2023-06-22T02:23:18;20.20;88.93
75387;DHT22;63966;47.914;22.266;2023-06-22T02:26:21;20.09;89.17
75387;DHT22;63966;47.914;22.266;2023-06-22T02:29:25;19.98;89.75
75387;DHT22;63966;47.914;22.266;2023-06-22T02:32:30;19.91;89.98
75387;DHT22;63966;47.914;22.266;2023-06-22T02:35:33;19.85;90.13
75387;DHT22;63966;47.914;22.266;2023-06-22T02:38:40;19.86;90.23
75387;DHT22;63966;47.914;22.266;2023-06-22T02:41:53;19.81;90.37
75387;DHT22;63966;47.914;22.266;2023-06-22T02:44:58;19.79;90.44
75387;DHT22;63966;47.914;22.266;2023-06-22T02:48:01;19.74;90.77
75387;DHT22;63966;47.914;22.266;2023-06-22T02:51:05;19.71;90.67
75387;DHT22;63966;47.914;22.266;2023-06-22T02:54:08;19.64;90.82
75387;DHT22;63966;47.914;22.266;2023-06-22T02:57:12;19.64;91.02
75387;DHT22;63966;47.914;22.266;2023-06-22T03:00:19;19.58;90.96
75387;DHT22;63966;47.914;22.266;2023-06-22T03:03:23;19.50;91.11
75387;DHT22;63966;47.914;22.266;2023-06-22T03:06:29;19.67;90.54
75387;DHT22;63966;47.914;22.266;2023-06-22T03:09:33;19.55;90.62
75387;DHT22;63966;47.914;22.266;2023-06-22T03:12:38;19.57;91.35
75387;DHT22;63966;47.914;22.266;2023-06-22T03:15:41;19.67;90.75
75387;DHT22;63966;47.914;22.266;2023-06-22T03:18:45;19.63;90.84
75387;DHT22;63966;47.914;22.266;2023-06-22T03:21:48;19.75;90.48
75387;DHT22;63966;47.914;22.266;2023-06-22T03:24:52;19.96;89.23
75387;DHT22;63966;47.914;22.266;2023-06-22T03:27:56;20.08;88.33
75387;DHT22;63966;47.914;22.266;2023-06-22T03:31:00;20.09;87.90
75387;DHT22;63966;47.914;22.266;2023-06-22T03:34:06;20.11;87.77
75387;DHT22;63966;47.914;22.266;2023-06-22T03:37:09;20.11;87.75
75387;DHT22;63966;47.914;22.266;2023-06-22T03:40:13;20.19;87.50
75387;DHT22;63966;47.914;22.266;2023-06-22T03:43:16;20.20;87.48
75387;DHT22;63966;47.914;22.266;2023-06-22T03:46:20;20.30;87.50
75387;DHT22;63966;47.914;22.266;2023-06-22T03:49:23;20.39;87.49
75387;DHT22;63966;47.914;22.266;2023-06-22T03:52:27;20.41;87.98
75387;DHT22;63966;47.914;22.266;2023-06-22T03:55:30;20.53;87.38
75387;DHT22;63966;47.914;22.266;2023-06-22T03:58:33;20.74;86.96
75387;DHT22;63966;47.914;22.266;2023-06-22T04:01:39;20.87;86.15
75387;DHT22;63966;47.914;22.266;2023-06-22T04:04:42;21.02;86.05
75387;DHT22;63966;47.914;22.266;2023-06-22T04:07:46;21.18;85.02
75387;DHT22;63966;47.914;22.266;2023-06-22T04:10:49;21.45;84.48
75387;DHT22;63966;47.914;22.266;2023-06-22T04:13:53;21.67;83.93
75387;DHT22;63966;47.914;22.266;2023-06-22T04:16:57;22.21;81.72
75387;DHT22;63966;47.914;22.266;2023-06-22T04:20:00;22.63;79.58
75387;DHT22;63966;47.914;22.266;2023-06-22T04:23:04;22.97;77.99
75387;DHT22;63966;47.914;22.266;2023-06-22T04:26:07;22.66;78.49
75387;DHT22;63966;47.914;22.266;2023-06-22T04:29:11;22.49;79.13
75387;DHT22;63966;47.914;22.266;2023-06-22T04:32:17;23.02;78.55
75387;DHT22;63966;47.914;22.266;2023-06-22T04:35:20;23.51;75.72
75387;DHT22;63966;47.914;22.266;2023-06-22T04:38:26;23.74;75.42
75387;DHT22;63966;47.914;22.266;2023-06-22T04:41:29;23.82;74.87
75387;DHT22;63966;47.914;22.266;2023-06-22T04:44:33;23.38;75.59
75387;DHT22;63966;47.914;22.266;2023-06-22T04:47:36;23.13;77.01
75387;DHT22;63966;47.914;22.266;2023-06-22T04:50:42;23.00;77.49
75387;DHT22;63966;47.914;22.266;2023-06-22T04:53:47;23.11;77.49
75387;DHT22;63966;47.914;22.266;2023-06-22T04:56:50;23.96;74.50
75387;DHT22;63966;47.914;22.266;2023-06-22T05:00:00;24.37;72.46
75387;DHT22;63966;47.914;22.266;2023-06-22T05:03:15;25.16;70.26
75387;DHT22;63966;47.914;22.266;2023-06-22T05:06:23;26.59;65.02
75387;DHT22;63966;47.914;22.266;2023-06-22T05:09:30;26.82;64.99
75387;DHT22;63966;47.914;22.266;2023-06-22T05:12:33;25.93;66.77
75387;DHT22;63966;47.914;22.266;2023-06-22T05:15:38;25.69;67.02
75387;DHT22;63966;47.914;22.266;2023-06-22T05:18:43;27.55;63.75
75387;DHT22;63966;47.914;22.266;2023-06-22T05:21:46;28.06;60.70
75387;DHT22;63966;47.914;22.266;2023-06-22T05:24:50;27.93;61.05
75387;DHT22;63966;47.914;22.266;2023-06-22T05:27:53;27.03;62.95
75387;DHT22;63966;47.914;22.266;2023-06-22T05:30:56;26.32;65.20
75387;DHT22;63966;47.914;22.266;2023-06-22T05:34:00;26.09;66.98
75387;DHT22;63966;47.914;22.266;2023-06-22T05:37:04;25.94;67.66
75387;DHT22;63966;47.914;22.266;2023-06-22T05:40:08;25.84;68.74
75387;DHT22;63966;47.914;22.266;2023-06-22T05:43:12;25.88;69.27
75387;DHT22;63966;47.914;22.266;2023-06-22T05:46:17;26.35;67.26
75387;DHT22;63966;47.914;22.266;2023-06-22T05:49:20;28.31;61.73
75387;DHT22;63966;47.914;22.266;2023-06-22T05:52:25;29.60;57.85
75387;DHT22;63966;47.914;22.266;2023-06-22T05:55:28;30.57;54.57
75387;DHT22;63966;47.914;22.266;2023-06-22T05:58:32;30.56;54.05
75387;DHT22;63966;47.914;22.266;2023-06-22T06:01:35;29.33;57.23
75387;DHT22;63966;47.914;22.266;2023-06-22T06:04:39;28.04;60.27
75387;DHT22;63966;47.914;22.266;2023-06-22T06:07:44;27.42;63.08
75387;DHT22;63966;47.914;22.266;2023-06-22T06:10:47;27.14;63.49
75387;DHT22;63966;47.914;22.266;2023-06-22T06:13:51;27.23;62.80
75387;DHT22;63966;47.914;22.266;2023-06-22T06:16:54;26.82;63.96
75387;DHT22;63966;47.914;22.266;2023-06-22T06:20:00;26.32;66.07
75387;DHT22;63966;47.914;22.266;2023-06-22T06:23:04;26.42;65.52
75387;DHT22;63966;47.914;22.266;2023-06-22T06:26:07;26.70;64.04
75387;DHT22;63966;47.914;22.266;2023-06-22T06:29:11;26.60;64.18
75387;DHT22;63966;47.914;22.266;2023-06-22T06:32:14;26.02;66.44
75387;DHT22;63966;47.914;22.266;2023-06-22T06:35:18;25.87;66.67
75387;DHT22;63966;47.914;22.266;2023-06-22T06:38:21;25.88;67.16
75387;DHT22;63966;47.914;22.266;2023-06-22T06:41:25;25.95;67.64
75387;DHT22;63966;47.914;22.266;2023-06-22T06:44:28;26.22;67.81
75387;DHT22;63966;47.914;22.266;2023-06-22T06:47:32;26.60;64.94
75387;DHT22;63966;47.914;22.266;2023-06-22T06:50:35;26.82;64.56
75387;DHT22;63966;47.914;22.266;2023-06-22T06:53:39;28.44;58.79
75387;DHT22;63966;47.914;22.266;2023-06-22T06:56:42;30.63;55.41
75387;DHT22;63966;47.914;22.266;2023-06-22T06:59:51;31.92;51.88
75387;DHT22;63966;47.914;22.266;2023-06-22T07:02:54;32.72;51.11
75387;DHT22;63966;47.914;22.266;2023-06-22T07:05:58;33.00;47.72
75387;DHT22;63966;47.914;22.266;2023-06-22T07:09:02;33.22;48.13
75387;DHT22;63966;47.914;22.266;2023-06-22T07:12:07;32.45;47.80
75387;DHT22;63966;47.914;22.266;2023-06-22T07:15:10;32.09;49.02
75387;DHT22;63966;47.914;22.266;2023-06-22T07:18:15;31.58;50.00
75387;DHT22;63966;47.914;22.266;2023-06-22T07:21:19;31.32;50.62
75387;DHT22;63966;47.914;22.266;2023-06-22T07:24:22;30.77;52.03
75387;DHT22;63966;47.914;22.266;2023-06-22T07:27:26;29.98;54.47
75387;DHT22;63966;47.914;22.266;2023-06-22T07:30:30;30.33;53.98
75387;DHT22;63966;47.914;22.266;2023-06-22T07:33:34;29.34;55.96
75387;DHT22;63966;47.914;22.266;2023-06-22T07:36:38;28.67;58.43
75387;DHT22;63966;47.914;22.266;2023-06-22T07:39:41;29.03;58.05
75387;DHT22;63966;47.914;22.266;2023-06-22T07:42:45;31.00;52.92
75387;DHT22;63966;47.914;22.266;2023-06-22T07:45:51;32.67;47.99
75387;DHT22;63966;47.914;22.266;2023-06-22T07:48:58;33.71;45.44
75387;DHT22;63966;47.914;22.266;2023-06-22T07:52:02;35.28;43.50
75387;DHT22;63966;47.914;22.266;2023-06-22T07:55:09;35.27;42.82
75387;DHT22;63966;47.914;22.266;2023-06-22T07:58:12;35.11;42.91
75387;DHT22;63966;47.914;22.266;2023-06-22T08:01:16;34.71;43.78
75387;DHT22;63966;47.914;22.266;2023-06-22T08:04:20;35.35;42.91
75387;DHT22;63966;47.914;22.266;2023-06-22T08:07:23;33.92;46.21
75387;DHT22;63966;47.914;22.266;2023-06-22T08:10:27;34.82;44.55
75387;DHT22;63966;47.914;22.266;2023-06-22T08:13:30;36.06;42.66
75387;DHT22;63966;47.914;22.266;2023-06-22T08:16:34;36.38;41.32
75387;DHT22;63966;47.914;22.266;2023-06-22T08:19:37;35.30;43.74
75387;DHT22;63966;47.914;22.266;2023-06-22T08:22:42;34.40;44.53
75387;DHT22;63966;47.914;22.266;2023-06-22T08:25:46;35.55;42.23
75387;DHT22;63966;47.914;22.266;2023-06-22T08:28:51;32.83;47.97
75387;DHT22;63966;47.914;22.266;2023-06-22T08:31:54;31.49;50.69
75387;DHT22;63966;47.914;22.266;2023-06-22T08:34:58;31.69;51.21
75387;DHT22;63966;47.914;22.266;2023-06-22T08:38:01;31.10;52.56
75387;DHT22;63966;47.914;22.266;2023-06-22T08:41:05;30.19;53.17
75387;DHT22;63966;47.914;22.266;2023-06-22T08:44:08;29.81;55.09
75387;DHT22;63966;47.914;22.266;2023-06-22T08:47:12;30.25;53.08
75387;DHT22;63966;47.914;22.266;2023-06-22T08:50:15;31.75;51.51
75387;DHT22;63966;47.914;22.266;2023-06-22T08:53:18;31.41;50.32
75387;DHT22;63966;47.914;22.266;2023-06-22T08:56:22;30.97;51.29
75387;DHT22;63966;47.914;22.266;2023-06-22T08:59:25;30.81;52.65
75387;DHT22;63966;47.914;22.266;2023-06-22T09:02:29;30.46;54.10
75387;DHT22;63966;47.914;22.266;2023-06-22T09:05:36;30.44;53.81
75387;DHT22;63966;47.914;22.266;2023-06-22T09:08:40;30.26;54.00
75387;DHT22;63966;47.914;22.266;2023-06-22T09:11:43;29.60;54.50
75387;DHT22;63966;47.914;22.266;2023-06-22T09:14:47;29.68;56.14
75387;DHT22;63966;47.914;22.266;2023-06-22T09:17:50;30.28;54.24
75387;DHT22;63966;47.914;22.266;2023-06-22T09:20:57;30.39;54.80
75387;DHT22;63966;47.914;22.266;2023-06-22T09:24:01;30.46;57.13
75387;DHT22;63966;47.914;22.266;2023-06-22T09:27:04;30.33;59.03
75387;DHT22;63966;47.914;22.266;2023-06-22T09:30:08;30.43;60.05
75387;DHT22;63966;47.914;22.266;2023-06-22T09:33:12;30.80;57.58
75387;DHT22;63966;47.914;22.266;2023-06-22T09:36:15;31.01;57.83
75387;DHT22;63966;47.914;22.266;2023-06-22T09:39:20;30.84;57.04
75387;DHT22;63966;47.914;22.266;2023-06-22T09:42:23;30.35;55.89
75387;DHT22;63966;47.914;22.266;2023-06-22T09:45:26;30.02;57.30
75387;DHT22;63966;47.914;22.266;2023-06-22T09:48:30;29.86;56.77
75387;DHT22;63966;47.914;22.266;2023-06-22T09:51:33;29.97;58.70
75387;DHT22;63966;47.914;22.266;2023-06-22T09:54:37;30.00;60.23
75387;DHT22;63966;47.914;22.266;2023-06-22T09:57:40;29.45;58.00
75387;DHT22;63966;47.914;22.266;2023-06-22T10:00:43;29.31;59.71
75387;DHT22;63966;47.914;22.266;2023-06-22T10:03:47;29.47;59.26
75387;DHT22;63966;47.914;22.266;2023-06-22T10:06:50;29.63;60.79
75387;DHT22;63966;47.914;22.266;2023-06-22T10:09:54;29.91;58.95
75387;DHT22;63966;47.914;22.266;2023-06-22T10:13:09;30.25;57.57
75387;DHT22;63966;47.914;22.266;2023-06-22T10:16:16;30.52;57.60
75387;DHT22;63966;47.914;22.266;2023-06-22T10:19:19;31.31;56.33
75387;DHT22;63966;47.914;22.266;2023-06-22T10:22:23;31.00;54.75
75387;DHT22;63966;47.914;22.266;2023-06-22T10:25:27;30.95;54.13
75387;DHT22;63966;47.914;22.266;2023-06-22T10:28:31;30.86;56.79
75387;DHT22;63966;47.914;22.266;2023-06-22T10:31:35;30.59;55.08
75387;DHT22;63966;47.914;22.266;2023-06-22T10:34:38;30.46;56.98
75387;DHT22;63966;47.914;22.266;2023-06-22T10:37:46;30.08;57.20
75387;DHT22;63966;47.914;22.266;2023-06-22T10:40:49;30.60;57.09
75387;DHT22;63966;47.914;22.266;2023-06-22T10:43:53;30.76;54.29
75387;DHT22;63966;47.914;22.266;2023-06-22T10:46:56;31.02;55.34
75387;DHT22;63966;47.914;22.266;2023-06-22T10:50:02;30.12;56.64
75387;DHT22;63966;47.914;22.266;2023-06-22T10:53:05;29.68;58.44
75387;DHT22;63966;47.914;22.266;2023-06-22T10:56:09;29.47;57.19
75387;DHT22;63966;47.914;22.266;2023-06-22T10:59:12;29.15;57.49
75387;DHT22;63966;47.914;22.266;2023-06-22T11:02:16;29.36;57.72
75387;DHT22;63966;47.914;22.266;2023-06-22T11:05:19;29.46;58.71
75387;DHT22;63966;47.914;22.266;2023-06-22T11:08:23;30.01;56.93
75387;DHT22;63966;47.914;22.266;2023-06-22T11:11:26;30.59;55.51
75387;DHT22;63966;47.914;22.266;2023-06-22T11:14:30;30.39;55.94
75387;DHT22;63966;47.914;22.266;2023-06-22T11:17:33;30.22;55.56
75387;DHT22;63966;47.914;22.266;2023-06-22T11:20:36;30.26;55.79
75387;DHT22;63966;47.914;22.266;2023-06-22T11:23:43;30.59;55.72
75387;DHT22;63966;47.914;22.266;2023-06-22T11:26:46;30.77;55.17
75387;DHT22;63966;47.914;22.266;2023-06-22T11:29:50;30.77;54.89
75387;DHT22;63966;47.914;22.266;2023-06-22T11:32:53;30.70;55.55
75387;DHT22;63966;47.914;22.266;2023-06-22T11:35:56;30.84;53.77
75387;DHT22;63966;47.914;22.266;2023-06-22T11:39:00;30.73;55.71
75387;DHT22;63966;47.914;22.266;2023-06-22T11:42:09;30.37;56.18
75387;DHT22;63966;47.914;22.266;2023-06-22T11:45:12;30.26;56.72
75387;DHT22;63966;47.914;22.266;2023-06-22T11:48:16;30.37;56.16
75387;DHT22;63966;47.914;22.266;2023-06-22T11:51:19;30.39;54.97
75387;DHT22;63966;47.914;22.266;2023-06-22T11:54:22;30.33;57.31
75387;DHT22;63966;47.914;22.266;2023-06-22T11:57:26;30.35;59.06
75387;DHT22;63966;47.914;22.266;2023-06-22T12:00:29;30.52;56.11
75387;DHT22;63966;47.914;22.266;2023-06-22T12:03:33;30.57;56.33
75387;DHT22;63966;47.914;22.266;2023-06-22T12:06:38;30.50;55.85
75387;DHT22;63966;47.914;22.266;2023-06-22T12:09:44;30.28;55.61
75387;DHT22;63966;47.914;22.266;2023-06-22T12:12:48;30.18;55.78
75387;DHT22;63966;47.914;22.266;2023-06-22T12:15:51;30.56;59.74
75387;DHT22;63966;47.914;22.266;2023-06-22T12:18:55;30.97;54.77
75387;DHT22;63966;47.914;22.266;2023-06-22T12:21:59;31.00;56.26
75387;DHT22;63966;47.914;22.266;2023-06-22T12:25:02;30.64;56.47
75387;DHT22;63966;47.914;22.266;2023-06-22T12:28:05;30.21;56.86
75387;DHT22;63966;47.914;22.266;2023-06-22T12:31:09;30.29;57.00
75387;DHT22;63966;47.914;22.266;2023-06-22T12:34:12;30.44;56.32
75387;DHT22;63966;47.914;22.266;2023-06-22T12:37:15;30.42;56.74
75387;DHT22;63966;47.914;22.266;2023-06-22T12:40:19;30.42;59.46
75387;DHT22;63966;47.914;22.266;2023-06-22T12:43:22;30.39;59.18
75387;DHT22;63966;47.914;22.266;2023-06-22T12:46:26;30.61;56.55
75387;DHT22;63966;47.914;22.266;2023-06-22T12:49:29;30.42;56.68
75387;DHT22;63966;47.914;22.266;2023-06-22T12:52:33;30.56;59.14
75387;DHT22;63966;47.914;22.266;2023-06-22T12:55:36;30.73;56.02
75387;DHT22;63966;47.914;22.266;2023-06-22T12:58:39;30.44;55.92
75387;DHT22;63966;47.914;22.266;2023-06-22T13:01:43;30.23;58.47
75387;DHT22;63966;47.914;22.266;2023-06-22T13:04:49;29.98;56.09
75387;DHT22;63966;47.914;22.266;2023-06-22T13:07:53;30.04;58.29
75387;DHT22;63966;47.914;22.266;2023-06-22T13:10:57;30.05;59.23
75387;DHT22;63966;47.914;22.266;2023-06-22T13:14:01;30.04;57.27
75387;DHT22;63966;47.914;22.266;2023-06-22T13:17:08;29.94;57.63
75387;DHT22;63966;47.914;22.266;2023-06-22T13:20:12;29.80;57.23
75387;DHT22;63966;47.914;22.266;2023-06-22T13:23:15;29.57;59.39
75387;DHT22;63966;47.914;22.266;2023-06-22T13:26:18;29.78;59.32
75387;DHT22;63966;47.914;22.266;2023-06-22T13:29:22;29.86;58.02
75387;DHT22;63966;47.914;22.266;2023-06-22T13:32:25;30.08;57.98
75387;DHT22;63966;47.914;22.266;2023-06-22T13:35:29;30.26;57.82
75387;DHT22;63966;47.914;22.266;2023-06-22T13:38:33;30.43;56.35
75387;DHT22;63966;47.914;22.266;2023-06-22T13:41:37;30.33;57.33
75387;DHT22;63966;47.914;22.266;2023-06-22T13:44:40;30.12;59.81
75387;DHT22;63966;47.914;22.266;2023-06-22T13:47:44;29.97;57.86
75387;DHT22;63966;47.914;22.266;2023-06-22T13:50:47;29.75;57.80
75387;DHT22;63966;47.914;22.266;2023-06-22T13:53:51;29.58;61.96
75387;DHT22;63966;47.914;22.266;2023-06-22T13:56:54;29.50;58.35
75387;DHT22;63966;47.914;22.266;2023-06-22T13:59:57;29.25;58.91
75387;DHT22;63966;47.914;22.266;2023-06-22T14:03:01;29.36;58.16
75387;DHT22;63966;47.914;22.266;2023-06-22T14:06:04;29.33;60.38
75387;DHT22;63966;47.914;22.266;2023-06-22T14:09:08;29.38;60.72
75387;DHT22;63966;47.914;22.266;2023-06-22T14:12:11;29.33;60.47
75387;DHT22;63966;47.914;22.266;2023-06-22T14:15:15;29.36;59.99
75387;DHT22;63966;47.914;22.266;2023-06-22T14:18:18;29.37;59.54
75387;DHT22;63966;47.914;22.266;2023-06-22T14:21:22;29.51;60.88
75387;DHT22;63966;47.914;22.266;2023-06-22T14:24:25;29.61;61.64
75387;DHT22;63966;47.914;22.266;2023-06-22T14:27:32;29.73;61.03
75387;DHT22;63966;47.914;22.266;2023-06-22T14:30:35;29.74;57.67
75387;DHT22;63966;47.914;22.266;2023-06-22T14:33:39;29.56;57.96
75387;DHT22;63966;47.914;22.266;2023-06-22T14:36:42;29.50;60.55
75387;DHT22;63966;47.914;22.266;2023-06-22T14:39:47;29.46;59.55
75387;DHT22;63966;47.914;22.266;2023-06-22T14:42:50;29.47;58.29
75387;DHT22;63966;47.914;22.266;2023-06-22T14:45:53;29.49;58.80
75387;DHT22;63966;47.914;22.266;2023-06-22T14:48:57;29.42;57.62
75387;DHT22;63966;47.914;22.266;2023-06-22T14:52:00;29.33;58.13
75387;DHT22;63966;47.914;22.266;2023-06-22T14:55:04;29.43;59.23
75387;DHT22;63966;47.914;22.266;2023-06-22T14:58:07;29.51;59.31
75387;DHT22;63966;47.914;22.266;2023-06-22T15:01:11;29.51;57.62
75387;DHT22;63966;47.914;22.266;2023-06-22T15:04:15;29.45;61.63
75387;DHT22;63966;47.914;22.266;2023-06-22T15:07:18;29.40;59.34
75387;DHT22;63966;47.914;22.266;2023-06-22T15:10:22;29.45;59.95
75387;DHT22;63966;47.914;22.266;2023-06-22T15:13:26;29.43;59.86
75387;DHT22;63966;47.914;22.266;2023-06-22T15:16:29;29.36;60.56
75387;DHT22;63966;47.914;22.266;2023-06-22T15:19:33;29.38;59.31
75387;DHT22;63966;47.914;22.266;2023-06-22T15:22:36;29.43;59.19
75387;DHT22;63966;47.914;22.266;2023-06-22T15:25:40;29.26;59.16
75387;DHT22;63966;47.914;22.266;2023-06-22T15:28:45;29.17;60.26
75387;DHT22;63966;47.914;22.266;2023-06-22T15:31:48;29.13;59.19
75387;DHT22;63966;47.914;22.266;2023-06-22T15:34:52;29.06;59.17
75387;DHT22;63966;47.914;22.266;2023-06-22T15:37:57;29.10;59.41
75387;DHT22;63966;47.914;22.266;2023-06-22T15:41:00;29.03;59.73
75387;DHT22;63966;47.914;22.266;2023-06-22T15:44:04;29.05;59.54
75387;DHT22;63966;47.914;22.266;2023-06-22T15:47:07;29.02;60.24
75387;DHT22;63966;47.914;22.266;2023-06-22T15:50:11;28.94;61.11
75387;DHT22;63966;47.914;22.266;2023-06-22T15:53:14;28.88;60.10
75387;DHT22;63966;47.914;22.266;2023-06-22T15:56:18;28.91;63.32
75387;DHT22;63966;47.914;22.266;2023-06-22T15:59:23;28.91;60.83
75387;DHT22;63966;47.914;22.266;2023-06-22T16:02:27;28.85;60.43
75387;DHT22;63966;47.914;22.266;2023-06-22T16:05:31;28.83;61.39
75387;DHT22;63966;47.914;22.266;2023-06-22T16:08:34;28.78;63.44
75387;DHT22;63966;47.914;22.266;2023-06-22T16:11:38;28.78;61.26
75387;DHT22;63966;47.914;22.266;2023-06-22T16:14:42;28.72;60.22
75387;DHT22;63966;47.914;22.266;2023-06-22T16:17:46;28.71;60.67
75387;DHT22;63966;47.914;22.266;2023-06-22T16:20:50;28.64;60.48
75387;DHT22;63966;47.914;22.266;2023-06-22T16:23:53;28.67;61.76
75387;DHT22;63966;47.914;22.266;2023-06-22T16:26:56;28.58;61.57
75387;DHT22;63966;47.914;22.266;2023-06-22T16:30:00;28.54;60.64
75387;DHT22;63966;47.914;22.266;2023-06-22T16:33:04;28.50;60.45
75387;DHT22;63966;47.914;22.266;2023-06-22T16:36:07;28.44;61.07
75387;DHT22;63966;47.914;22.266;2023-06-22T16:39:11;28.43;61.33
75387;DHT22;63966;47.914;22.266;2023-06-22T16:42:14;28.43;61.12
75387;DHT22;63966;47.914;22.266;2023-06-22T16:45:18;28.39;62.24
75387;DHT22;63966;47.914;22.266;2023-06-22T16:48:22;28.39;63.80
75387;DHT22;63966;47.914;22.266;2023-06-22T16:51:25;28.37;63.61
75387;DHT22;63966;47.914;22.266;2023-06-22T16:54:30;28.44;62.55
75387;DHT22;63966;47.914;22.266;2023-06-22T16:57:34;28.44;63.21
75387;DHT22;63966;47.914;22.266;2023-06-22T17:00:38;28.39;63.33
75387;DHT22;63966;47.914;22.266;2023-06-22T17:03:48;28.30;64.96
75387;DHT22;63966;47.914;22.266;2023-06-22T17:07:08;28.23;64.86
75387;DHT22;63966;47.914;22.266;2023-06-22T17:10:13;28.17;64.88
75387;DHT22;63966;47.914;22.266;2023-06-22T17:13:16;28.12;65.17
75387;DHT22;63966;47.914;22.266;2023-06-22T17:16:20;28.09;64.47
75387;DHT22;63966;47.914;22.266;2023-06-22T17:19:25;28.03;63.86
75387;DHT22;63966;47.914;22.266;2023-06-22T17:22:30;27.96;65.10
75387;DHT22;63966;47.914;22.266;2023-06-22T17:25:39;27.86;65.39
75387;DHT22;63966;47.914;22.266;2023-06-22T17:28:53;27.81;65.95
75387;DHT22;63966;47.914;22.266;2023-06-22T17:31:57;27.73;66.42
75387;DHT22;63966;47.914;22.266;2023-06-22T17:35:01;27.65;67.55
75387;DHT22;63966;47.914;22.266;2023-06-22T17:38:04;27.52;68.78
75387;DHT22;63966;47.914;22.266;2023-06-22T17:41:08;27.39;67.72
75387;DHT22;63966;47.914;22.266;2023-06-22T17:44:12;27.28;67.93
75387;DHT22;63966;47.914;22.266;2023-06-22T17:47:24;27.15;68.41
75387;DHT22;63966;47.914;22.266;2023-06-22T17:50:28;27.03;68.39
75387;DHT22;63966;47.914;22.266;2023-06-22T17:53:32;26.97;68.21
75387;DHT22;63966;47.914;22.266;2023-06-22T17:56:35;26.89;68.28
75387;DHT22;63966;47.914;22.266;2023-06-22T17:59:39;26.76;68.65
75387;DHT22;63966;47.914;22.266;2023-06-22T18:02:43;26.63;70.50
75387;DHT22;63966;47.914;22.266;2023-06-22T18:05:47;26.46;72.79
75387;DHT22;63966;47.914;22.266;2023-06-22T18:08:52;26.29;74.15
75387;DHT22;63966;47.914;22.266;2023-06-22T18:12:01;26.15;74.12
75387;DHT22;63966;47.914;22.266;2023-06-22T18:15:05;26.00;76.07
75387;DHT22;63966;47.914;22.266;2023-06-22T18:18:10;25.83;79.49
75387;DHT22;63966;47.914;22.266;2023-06-22T18:21:14;25.50;81.06
75387;DHT22;63966;47.914;22.266;2023-06-22T18:24:18;25.22;81.05
75387;DHT22;63966;47.914;22.266;2023-06-22T18:27:23;25.16;81.64
75387;DHT22;63966;47.914;22.266;2023-06-22T18:30:28;24.95;82.12
75387;DHT22;63966;47.914;22.266;2023-06-22T18:33:32;24.81;82.61
75387;DHT22;63966;47.914;22.266;2023-06-22T18:36:54;24.71;82.59
75387;DHT22;63966;47.914;22.266;2023-06-22T18:39:59;24.65;82.34
75387;DHT22;63966;47.914;22.266;2023-06-22T18:43:03;24.60;82.69
75387;DHT22;63966;47.914;22.266;2023-06-22T18:46:32;24.61;81.53
75387;DHT22;63966;47.914;22.266;2023-06-22T18:52:45;24.61;82.73
75387;DHT22;63966;47.914;22.266;2023-06-22T18:56:12;24.53;83.61
75387;DHT22;63966;47.914;22.266;2023-06-22T18:59:16;24.37;84.37
75387;DHT22;63966;47.914;22.266;2023-06-22T19:05:49;24.09;85.93
75387;DHT22;63966;47.914;22.266;2023-06-22T19:09:13;23.98;86.05
75387;DHT22;63966;47.914;22.266;2023-06-22T19:12:18;23.92;85.89
75387;DHT22;63966;47.914;22.266;2023-06-22T19:15:30;23.88;85.99
75387;DHT22;63966;47.914;22.266;2023-06-22T19:18:39;23.85;85.90
75387;DHT22;63966;47.914;22.266;2023-06-22T19:21:43;23.81;86.03
75387;DHT22;63966;47.914;22.266;2023-06-22T19:24:50;23.76;86.54